Time;durP1;ratioP1;P1;durP2;ratioP2;P2;SDS_P1;SDS_P2;PMS_P1;PMS_P2;Temp;Humidity;BMP_temperature;BMP_pressure;BME280_temperature;BME280_humidity;BME280_pressure;Samples;Min_cycle;Max_cycle;Signal;HPM_P1;HPM_P2
2023/09/30 00:02:20;;;;;;;7.07;5.55;;;;;;;;;;10329226;28;20101;-56
2023/09/30 00:07:21;;;;;;;7.47;5.32;;;;;;;;;;10328847;28;20038;-63
2023/09/30 00:12:22;;;;;;;5.97;5.38;;;;;;;;;;10329302;28;20056;-63
2023/09/30 00:17:22;;;;;;;8.82;5.60;;;;;;;;;;10328574;28;20026;-58
2023/09/30 00:22:23;;;;;;;8.50;5.07;;;;;;;;;;10328810;28;20261;-59
2023/09/30 00:27:23;;;;;;;14.15;6.25;;;;;;;;;;10328268;28;20049;-64
2023/09/30 00:32:24;;;;;;;7.82;5.45;;;;;;;;;;10328587;28;20026;-63
2023/09/30 00:37:24;;;;;;;8.35;5.50;;;;;;;;;;10328320;28;20030;-63
2023/09/30 00:42:26;;;;;;;9.65;6.00;;;;;;;;;;10327071;28;20393;-59
2023/09/30 00:47:27;;;;;;;11.70;6.07;;;;;;;;;;10327596;28;20034;-65
2023/09/30 00:52:28;;;;;;;13.02;6.10;;;;;;;;;;10328031;28;20023;-58
2023/09/30 00:57:30;;;;;;;7.97;5.68;;;;;;;;;;10328464;28;20108;-59
2023/09/30 01:02:31;;;;;;;7.82;5.50;;;;;;;;;;10327797;28;20029;-63
2023/09/30 01:07:31;;;;;;;6.78;5.22;;;;;;;;;;10327063;28;20480;-54
2023/09/30 01:12:32;;;;;;;9.40;5.57;;;;;;;;;;10327033;28;20050;-62
2023/09/30 01:17:32;;;;;;;7.65;6.05;;;;;;;;;;10326785;28;20030;-58
2023/09/30 01:22:33;;;;;;;10.00;5.57;;;;;;;;;;10326872;28;20038;-59
2023/09/30 01:27:34;;;;;;;7.97;5.13;;;;;;;;;;10325993;28;20042;-53
2023/09/30 01:32:35;;;;;;;10.82;5.10;;;;;;;;;;10326971;28;20081;-51
2023/09/30 01:37:36;;;;;;;6.78;5.45;;;;;;;;;;10326575;28;20371;-50
2023/09/30 01:42:37;;;;;;;11.88;5.93;;;;;;;;;;10326488;28;20072;-51
2023/09/30 01:47:38;;;;;;;9.05;5.93;;;;;;;;;;10326428;28;20030;-56
2023/09/30 01:52:38;;;;;;;9.50;6.03;;;;;;;;;;10326160;28;20022;-54
2023/09/30 01:57:39;;;;;;;10.18;5.78;;;;;;;;;;10333197;28;20418;-60
2023/09/30 02:02:41;;;;;;;9.63;6.22;;;;;;;;;;10333687;28;20045;-52
2023/09/30 02:07:42;;;;;;;8.48;5.40;;;;;;;;;;10333468;28;20486;-61
2023/09/30 02:12:42;;;;;;;7.63;5.85;;;;;;;;;;10333145;28;20105;-53
2023/09/30 02:17:45;;;;;;;10.07;5.70;;;;;;;;;;10333878;28;20034;-54
2023/09/30 02:22:47;;;;;;;8.82;5.32;;;;;;;;;;10332984;28;20022;-54
2023/09/30 02:27:49;;;;;;;10.98;6.13;;;;;;;;;;10333288;28;20026;-51
2023/09/30 02:32:50;;;;;;;10.65;6.07;;;;;;;;;;10332619;28;20029;-53
2023/09/30 02:37:51;;;;;;;9.73;5.70;;;;;;;;;;10331052;28;20053;-62
2023/09/30 02:42:52;;;;;;;12.10;6.30;;;;;;;;;;10332261;28;20113;-52
2023/09/30 02:47:53;;;;;;;8.00;5.85;;;;;;;;;;10332450;28;20097;-54
2023/09/30 02:52:53;;;;;;;10.15;6.13;;;;;;;;;;10332334;28;20470;-60
2023/09/30 02:57:54;;;;;;;7.53;6.28;;;;;;;;;;10331709;28;20505;-60
2023/09/30 03:02:56;;;;;;;12.52;5.80;;;;;;;;;;10331849;28;20027;-60
2023/09/30 03:07:57;;;;;;;12.57;6.13;;;;;;;;;;10330926;28;20034;-60
2023/09/30 03:13:03;;;;;;;9.10;5.88;;;;;;;;;;10331384;28;20494;-61
2023/09/30 03:18:05;;;;;;;9.65;5.97;;;;;;;;;;10330763;28;20026;-62
2023/09/30 03:23:06;;;;;;;7.85;5.47;;;;;;;;;;10330232;28;20027;-56
2023/09/30 03:28:06;;;;;;;7.40;5.60;;;;;;;;;;10330727;28;20080;-62
2023/09/30 03:33:07;;;;;;;7.55;5.97;;;;;;;;;;10331003;28;20045;-56
2023/09/30 03:38:09;;;;;;;8.07;6.25;;;;;;;;;;10330095;28;20026;-57
2023/09/30 03:43:10;;;;;;;7.10;5.22;;;;;;;;;;10329752;28;20439;-58
2023/09/30 03:48:11;;;;;;;5.90;5.30;;;;;;;;;;10329753;28;20094;-57
2023/09/30 03:53:12;;;;;;;9.02;5.85;;;;;;;;;;10330362;28;20173;-56
2023/09/30 03:58:12;;;;;;;8.88;6.18;;;;;;;;;;10329348;28;20034;-57
2023/09/30 04:03:13;;;;;;;8.45;5.93;;;;;;;;;;10329433;28;20037;-61
2023/09/30 04:08:15;;;;;;;8.25;5.63;;;;;;;;;;10328946;28;20030;-53
2023/09/30 04:13:16;;;;;;;10.07;5.47;;;;;;;;;;10328556;28;20560;-61
2023/09/30 04:18:19;;;;;;;8.38;5.90;;;;;;;;;;10328181;28;20026;-55
2023/09/30 04:23:20;;;;;;;6.93;5.25;;;;;;;;;;10328168;28;20489;-53
2023/09/30 04:28:22;;;;;;;7.88;5.97;;;;;;;;;;10328147;28;20030;-53
2023/09/30 04:33:24;;;;;;;9.40;5.50;;;;;;;;;;10327903;28;20019;-50
2023/09/30 04:38:25;;;;;;;6.35;5.32;;;;;;;;;;10328305;28;20046;-53
2023/09/30 04:43:29;;;;;;;6.03;5.25;;;;;;;;;;10327530;28;20065;-52
2023/09/30 04:48:29;;;;;;;6.38;5.40;;;;;;;;;;10327607;28;20089;-54
2023/09/30 04:53:30;;;;;;;6.85;5.30;;;;;;;;;;10327500;28;20096;-55
2023/09/30 04:58:31;;;;;;;7.35;5.68;;;;;;;;;;10327259;28;20112;-59
2023/09/30 05:03:31;;;;;;;12.93;5.28;;;;;;;;;;10328061;28;20027;-53
2023/09/30 05:08:32;;;;;;;6.85;5.47;;;;;;;;;;10327121;28;20478;-58
2023/09/30 05:13:34;;;;;;;6.88;5.28;;;;;;;;;;10326794;28;20534;-57
2023/09/30 05:18:34;;;;;;;11.02;5.72;;;;;;;;;;10327345;28;20038;-53
2023/09/30 05:23:35;;;;;;;10.15;5.43;;;;;;;;;;10327089;28;20359;-53
2023/09/30 05:28:36;;;;;;;9.55;5.75;;;;;;;;;;10327210;28;20048;-57
2023/09/30 05:33:37;;;;;;;8.52;5.28;;;;;;;;;;10335298;28;20027;-56
2023/09/30 05:38:38;;;;;;;5.88;5.20;;;;;;;;;;10334972;28;20035;-61
2023/09/30 05:43:38;;;;;;;6.45;5.25;;;;;;;;;;10334183;28;20363;-64
2023/09/30 05:48:39;;;;;;;9.25;5.32;;;;;;;;;;10334072;28;20030;-52
2023/09/30 05:53:41;;;;;;;14.70;5.97;;;;;;;;;;10332297;28;20060;-55
2023/09/30 05:58:42;;;;;;;8.57;5.43;;;;;;;;;;10334257;28;20064;-56
2023/09/30 06:03:46;;;;;;;15.18;5.80;;;;;;;;;;10332963;28;20551;-63
2023/09/30 06:08:47;;;;;;;14.70;5.32;;;;;;;;;;10333770;28;20023;-55
2023/09/30 06:13:47;;;;;;;11.80;5.20;;;;;;;;;;10331863;28;20073;-54
2023/09/30 06:18:49;;;;;;;6.35;4.85;;;;;;;;;;10333653;28;20033;-62
2023/09/30 06:23:53;;;;;;;9.80;5.50;;;;;;;;;;10332118;28;20237;-60
2023/09/30 06:28:54;;;;;;;12.60;5.55;;;;;;;;;;10332416;28;20463;-58
2023/09/30 06:33:58;;;;;;;6.50;4.85;;;;;;;;;;10331303;28;20023;-60
2023/09/30 06:38:59;;;;;;;6.93;5.07;;;;;;;;;;10330597;28;20074;-60
2023/09/30 06:43:59;;;;;;;9.52;5.40;;;;;;;;;;10329856;28;20034;-61
2023/09/30 06:49:00;;;;;;;6.25;4.75;;;;;;;;;;10331928;28;20033;-59
2023/09/30 06:54:01;;;;;;;20.25;5.15;;;;;;;;;;10330931;28;20031;-59
2023/09/30 06:59:01;;;;;;;20.33;6.30;;;;;;;;;;10331429;28;20579;-60
2023/09/30 07:04:02;;;;;;;13.70;5.85;;;;;;;;;;10330991;28;20034;-57
2023/09/30 07:09:04;;;;;;;21.55;5.65;;;;;;;;;;10331141;28;20397;-59
2023/09/30 07:14:04;;;;;;;17.52;5.22;;;;;;;;;;10330981;28;20117;-59
2023/09/30 07:19:05;;;;;;;17.23;6.03;;;;;;;;;;10331455;28;20113;-56
2023/09/30 07:24:06;;;;;;;20.00;6.13;;;;;;;;;;10328596;28;20169;-55
2023/09/30 07:29:08;;;;;;;13.27;5.47;;;;;;;;;;10329571;28;20084;-51
2023/09/30 07:34:09;;;;;;;22.70;7.07;;;;;;;;;;10329733;28;20027;-54
2023/09/30 07:39:09;;;;;;;12.88;6.55;;;;;;;;;;10329713;28;20363;-54
2023/09/30 07:44:10;;;;;;;14.02;6.80;;;;;;;;;;10329251;28;20457;-54
2023/09/30 07:49:11;;;;;;;15.82;7.55;;;;;;;;;;10329234;28;20390;-56
2023/09/30 07:54:12;;;;;;;13.30;6.55;;;;;;;;;;10329005;28;20037;-56
2023/09/30 07:59:14;;;;;;;15.23;7.30;;;;;;;;;;10328643;28;20030;-55
2023/09/30 08:04:14;;;;;;;11.68;6.53;;;;;;;;;;10328607;28;20034;-58
2023/09/30 08:09:15;;;;;;;10.00;6.68;;;;;;;;;;10328039;28;20031;-55
2023/09/30 08:14:16;;;;;;;10.95;6.43;;;;;;;;;;10328736;28;20478;-56
2023/09/30 08:19:16;;;;;;;11.65;6.20;;;;;;;;;;10328469;28;20324;-53
2023/09/30 08:24:17;;;;;;;17.92;6.60;;;;;;;;;;10328235;28;20040;-55
2023/09/30 08:29:18;;;;;;;13.68;6.22;;;;;;;;;;10328149;28;20034;-57
2023/09/30 08:34:21;;;;;;;18.77;6.82;;;;;;;;;;10327077;28;20045;-60
2023/09/30 08:39:21;;;;;;;10.85;6.68;;;;;;;;;;10326949;28;20038;-61
2023/09/30 08:44:22;;;;;;;11.52;6.05;;;;;;;;;;10327054;28;20034;-54
2023/09/30 08:49:26;;;;;;;10.10;6.07;;;;;;;;;;10325998;28;20034;-60
2023/09/30 08:54:26;;;;;;;12.27;6.28;;;;;;;;;;10342464;28;20030;-55
2023/09/30 08:59:28;;;;;;;17.42;5.57;;;;;;;;;;10327920;28;20035;-55
2023/09/30 09:04:28;;;;;;;12.45;6.10;;;;;;;;;;10326835;28;20285;-54
2023/09/30 09:09:29;;;;;;;9.68;6.07;;;;;;;;;;10327677;28;20678;-59
2023/09/30 09:14:40;;;;;;;10.68;5.75;;;;;;;;;;10342177;28;20410;-57
2023/09/30 09:19:41;;;;;;;12.98;5.78;;;;;;;;;;10327516;28;20344;-53
2023/09/30 09:24:42;;;;;;;11.73;5.10;;;;;;;;;;10326927;28;20185;-55
2023/09/30 09:29:44;;;;;;;12.63;5.50;;;;;;;;;;10327436;28;20093;-53
2023/09/30 09:34:59;;;;;;;9.23;5.40;;;;;;;;;;10326750;28;20034;-54
2023/09/30 09:39:59;;;;;;;7.10;5.00;;;;;;;;;;10325538;28;20041;-54
2023/09/30 09:45:03;;;;;;;8.40;5.40;;;;;;;;;;10325917;28;20065;-57
2023/09/30 09:50:05;;;;;;;8.95;5.40;;;;;;;;;;10324692;28;20101;-56
2023/09/30 09:55:08;;;;;;;9.70;6.07;;;;;;;;;;10324678;28;20031;-56
2023/09/30 10:00:14;;;;;;;12.73;5.97;;;;;;;;;;10324990;28;20027;-52
2023/09/30 10:05:16;;;;;;;12.60;5.45;;;;;;;;;;10340717;28;20030;-55
2023/09/30 10:10:20;;;;;;;8.25;5.75;;;;;;;;;;10340853;28;20042;-57
2023/09/30 10:15:23;;;;;;;12.93;6.32;;;;;;;;;;10327757;28;20394;-52
2023/09/30 10:20:29;;;;;;;11.52;5.80;;;;;;;;;;10333641;28;20061;-53
2023/09/30 10:25:46;;;;;;;9.43;6.47;;;;;;;;;;10333554;28;20352;-60
2023/09/30 10:31:18;;;;;;;9.68;6.15;;;;;;;;;;10332880;28;20434;-57
2023/09/30 10:36:27;;;;;;;11.90;6.13;;;;;;;;;;10332511;28;20038;-53
2023/09/30 10:41:45;;;;;;;10.60;6.15;;;;;;;;;;10333016;28;20034;-57
2023/09/30 10:46:46;;;;;;;8.15;5.80;;;;;;;;;;10332658;28;20030;-53
2023/09/30 10:51:47;;;;;;;7.90;5.88;;;;;;;;;;10332065;28;20046;-58
2023/09/30 10:56:48;;;;;;;10.15;5.90;;;;;;;;;;10332770;28;20031;-59
2023/09/30 11:01:50;;;;;;;10.88;5.70;;;;;;;;;;10330446;28;20053;-55
2023/09/30 11:06:51;;;;;;;10.77;6.32;;;;;;;;;;10331384;28;20030;-60
2023/09/30 11:11:53;;;;;;;7.97;5.88;;;;;;;;;;10331491;28;20402;-57
2023/09/30 11:16:56;;;;;;;10.00;6.05;;;;;;;;;;10331078;28;20031;-61
2023/09/30 11:22:00;;;;;;;13.82;6.70;;;;;;;;;;10330706;28;20470;-56
2023/09/30 11:27:01;;;;;;;12.30;7.28;;;;;;;;;;10330222;28;20031;-55
2023/09/30 11:32:02;;;;;;;15.27;6.78;;;;;;;;;;10330007;28;20018;-55
2023/09/30 11:37:03;;;;;;;10.63;6.22;;;;;;;;;;10328973;28;20088;-57
2023/09/30 11:42:16;;;;;;;18.63;6.32;;;;;;;;;;10329674;28;20030;-59
2023/09/30 11:47:30;;;;;;;10.00;5.90;;;;;;;;;;10330294;28;20038;-60
2023/09/30 11:52:30;;;;;;;11.20;5.63;;;;;;;;;;10329620;28;20422;-56
2023/09/30 11:57:31;;;;;;;11.93;5.03;;;;;;;;;;10329538;28;20038;-56
2023/09/30 12:02:31;;;;;;;11.85;6.20;;;;;;;;;;10329276;28;20022;-56
2023/09/30 12:07:33;;;;;;;22.13;5.97;;;;;;;;;;10328504;28;20030;-59
2023/09/30 12:12:33;;;;;;;11.35;6.03;;;;;;;;;;10328232;28;20525;-56
2023/09/30 12:17:34;;;;;;;10.48;6.10;;;;;;;;;;10328338;28;20038;-57
2023/09/30 12:22:37;;;;;;;9.18;6.00;;;;;;;;;;10328408;28;20030;-56
2023/09/30 12:27:39;;;;;;;10.38;5.68;;;;;;;;;;10328360;28;20037;-57
2023/09/30 12:32:40;;;;;;;6.78;5.68;;;;;;;;;;10327696;28;20026;-59
2023/09/30 12:37:43;;;;;;;13.40;6.22;;;;;;;;;;10325709;28;20109;-62
2023/09/30 12:42:44;;;;;;;12.68;5.45;;;;;;;;;;10324202;28;20030;-56
2023/09/30 12:47:47;;;;;;;13.02;6.07;;;;;;;;;;10325872;28;20120;-63
2023/09/30 12:52:47;;;;;;;6.95;5.32;;;;;;;;;;10326181;28;20696;-60
2023/09/30 12:57:48;;;;;;;8.40;5.82;;;;;;;;;;10326560;28;20114;-58
2023/09/30 13:02:48;;;;;;;12.85;5.75;;;;;;;;;;10327059;28;20234;-60
2023/09/30 13:07:49;;;;;;;10.68;4.88;;;;;;;;;;10326816;28;20096;-62
2023/09/30 13:12:50;;;;;;;13.10;5.75;;;;;;;;;;10326361;28;20050;-60
2023/09/30 13:17:50;;;;;;;7.90;5.05;;;;;;;;;;10327480;28;20117;-58
2023/09/30 13:22:51;;;;;;;10.15;5.72;;;;;;;;;;10326813;28;20039;-58
2023/09/30 13:27:52;;;;;;;10.98;5.78;;;;;;;;;;10326831;28;20061;-58
2023/09/30 13:32:52;;;;;;;11.55;5.25;;;;;;;;;;10327089;28;20031;-62
2023/09/30 13:37:53;;;;;;;16.55;5.88;;;;;;;;;;10326595;28;20397;-55
2023/09/30 13:42:54;;;;;;;8.43;4.97;;;;;;;;;;10326195;28;20022;-56
2023/09/30 13:47:54;;;;;;;9.40;5.63;;;;;;;;;;10326583;28;20477;-59
2023/09/30 13:52:55;;;;;;;6.47;4.93;;;;;;;;;;10330019;28;20409;-54
2023/09/30 13:57:55;;;;;;;10.38;6.00;;;;;;;;;;10330616;28;20359;-60
2023/09/30 14:02:56;;;;;;;9.88;5.32;;;;;;;;;;10330050;28;20381;-56
2023/09/30 14:07:57;;;;;;;8.60;5.22;;;;;;;;;;10331920;28;20537;-59
2023/09/30 14:12:58;;;;;;;11.75;5.70;;;;;;;;;;10333251;28;20125;-61
2023/09/30 14:17:58;;;;;;;8.48;4.80;;;;;;;;;;10333914;28;20279;-58
2023/09/30 14:22:59;;;;;;;10.25;5.10;;;;;;;;;;10333526;28;20034;-54
2023/09/30 14:28:00;;;;;;;12.00;4.85;;;;;;;;;;10333643;28;20026;-56
2023/09/30 14:33:01;;;;;;;9.70;4.28;;;;;;;;;;10331863;28;20077;-51
2023/09/30 14:38:04;;;;;;;8.98;4.68;;;;;;;;;;10332082;28;20032;-52
2023/09/30 14:43:06;;;;;;;10.73;4.80;;;;;;;;;;10332333;28;20486;-53
2023/09/30 14:48:08;;;;;;;9.40;5.00;;;;;;;;;;10332710;28;20092;-53
2023/09/30 14:53:08;;;;;;;7.68;5.03;;;;;;;;;;10332382;28;20036;-58
2023/09/30 14:58:10;;;;;;;9.10;4.70;;;;;;;;;;10331743;28;20101;-56
2023/09/30 15:03:10;;;;;;;7.38;4.78;;;;;;;;;;10330660;28;20080;-60
2023/09/30 15:08:11;;;;;;;10.82;5.50;;;;;;;;;;10332312;28;20110;-56
2023/09/30 15:13:12;;;;;;;12.98;4.90;;;;;;;;;;10331109;28;20560;-60
2023/09/30 15:18:12;;;;;;;6.00;4.72;;;;;;;;;;10331032;28;20487;-61
2023/09/30 15:23:13;;;;;;;7.68;5.18;;;;;;;;;;10330451;28;20541;-55
2023/09/30 15:28:14;;;;;;;7.93;4.70;;;;;;;;;;10330371;28;20034;-60
2023/09/30 15:33:14;;;;;;;6.57;4.68;;;;;;;;;;10330281;28;20109;-53
2023/09/30 15:38:15;;;;;;;9.00;4.57;;;;;;;;;;10330371;28;20030;-55
2023/09/30 15:43:16;;;;;;;11.60;5.35;;;;;;;;;;10330509;28;20088;-55
2023/09/30 15:48:16;;;;;;;8.88;4.00;;;;;;;;;;10329866;28;20061;-57
2023/09/30 15:53:18;;;;;;;5.82;4.40;;;;;;;;;;10329654;28;20084;-53
2023/09/30 15:58:19;;;;;;;4.75;3.83;;;;;;;;;;10329858;28;20031;-54
2023/09/30 16:03:19;;;;;;;8.60;4.28;;;;;;;;;;10329870;28;20023;-59
2023/09/30 16:08:20;;;;;;;7.00;4.20;;;;;;;;;;10329527;28;20069;-58
2023/09/30 16:13:21;;;;;;;8.35;4.15;;;;;;;;;;10328702;28;20466;-54
2023/09/30 16:18:21;;;;;;;4.50;4.00;;;;;;;;;;10328858;28;20031;-57
2023/09/30 16:23:22;;;;;;;6.50;4.88;;;;;;;;;;10328587;28;20026;-58
2023/09/30 16:28:23;;;;;;;5.65;4.18;;;;;;;;;;10328950;28;20038;-55
2023/09/30 16:33:25;;;;;;;5.95;4.28;;;;;;;;;;10328274;28;20037;-59
2023/09/30 16:38:25;;;;;;;7.45;4.05;;;;;;;;;;10328091;28;20141;-61
2023/09/30 16:43:26;;;;;;;4.78;4.30;;;;;;;;;;10327893;28;20034;-55
2023/09/30 16:48:26;;;;;;;7.15;4.15;;;;;;;;;;10328446;28;20029;-57
2023/09/30 16:53:27;;;;;;;6.60;3.78;;;;;;;;;;10328268;28;20274;-54
2023/09/30 16:58:28;;;;;;;6.15;4.20;;;;;;;;;;10328103;28;20459;-57
2023/09/30 17:03:29;;;;;;;5.50;4.43;;;;;;;;;;10327457;28;20368;-59
2023/09/30 17:08:30;;;;;;;5.93;4.28;;;;;;;;;;10328123;28;20030;-54
2023/09/30 17:13:30;;;;;;;6.65;3.90;;;;;;;;;;10326440;28;20471;-55
2023/09/30 17:18:31;;;;;;;5.85;4.25;;;;;;;;;;10327430;28;20038;-60
2023/09/30 17:23:31;;;;;;;9.00;4.47;;;;;;;;;;10326905;28;20030;-54
2023/09/30 17:28:32;;;;;;;4.78;4.22;;;;;;;;;;10334151;28;20041;-53
2023/09/30 17:33:38;;;;;;;5.18;4.10;;;;;;;;;;10335580;28;20027;-56
2023/09/30 17:38:39;;;;;;;6.13;4.30;;;;;;;;;;10335621;28;20092;-54
2023/09/30 17:43:39;;;;;;;5.57;4.25;;;;;;;;;;10334359;28;20076;-58
2023/09/30 17:48:45;;;;;;;7.97;4.43;;;;;;;;;;10334927;28;20027;-58
2023/09/30 17:53:50;;;;;;;14.40;5.60;;;;;;;;;;10334434;28;20034;-57
2023/09/30 17:58:52;;;;;;;15.02;5.53;;;;;;;;;;10333786;28;20109;-57
2023/09/30 18:03:53;;;;;;;14.77;4.85;;;;;;;;;;10333823;28;20034;-57
2023/09/30 18:08:54;;;;;;;14.63;4.95;;;;;;;;;;10333984;28;20034;-57
2023/09/30 18:13:55;;;;;;;9.35;4.57;;;;;;;;;;10334378;28;20104;-58
2023/09/30 18:18:56;;;;;;;9.82;4.95;;;;;;;;;;10333568;28;20026;-57
2023/09/30 18:23:56;;;;;;;12.43;5.25;;;;;;;;;;10333643;28;20030;-58
2023/09/30 18:28:57;;;;;;;12.75;4.68;;;;;;;;;;10333233;28;20038;-58
2023/09/30 18:33:57;;;;;;;6.90;4.75;;;;;;;;;;10333379;28;20031;-57
2023/09/30 18:38:58;;;;;;;13.15;4.18;;;;;;;;;;10331172;28;20022;-57
2023/09/30 18:43:59;;;;;;;8.13;4.75;;;;;;;;;;10332226;28;20026;-57
2023/09/30 18:49:00;;;;;;;13.90;5.40;;;;;;;;;;10332386;28;20047;-57
2023/09/30 18:54:00;;;;;;;10.23;5.20;;;;;;;;;;10331780;28;20414;-57
2023/09/30 18:59:01;;;;;;;10.20;5.25;;;;;;;;;;10332108;28;20092;-60
2023/09/30 19:04:02;;;;;;;12.35;5.00;;;;;;;;;;10331649;28;20022;-57
2023/09/30 19:09:03;;;;;;;10.73;4.95;;;;;;;;;;10331541;28;20041;-58
2023/09/30 19:14:07;;;;;;;13.05;5.40;;;;;;;;;;10331461;28;20060;-59
2023/09/30 19:19:07;;;;;;;9.98;4.30;;;;;;;;;;10330597;28;20041;-58
2023/09/30 19:24:11;;;;;;;10.38;5.15;;;;;;;;;;10329744;28;20501;-61
2023/09/30 19:29:11;;;;;;;20.17;5.63;;;;;;;;;;10328994;28;20073;-59
2023/09/30 19:34:12;;;;;;;13.05;5.32;;;;;;;;;;10330081;28;20085;-57
2023/09/30 19:39:15;;;;;;;14.65;5.57;;;;;;;;;;10329935;28;20026;-60
2023/09/30 19:44:15;;;;;;;9.48;5.15;;;;;;;;;;10330477;28;20023;-58
2023/09/30 19:49:16;;;;;;;10.25;5.32;;;;;;;;;;10329480;28;20447;-59
2023/09/30 19:54:17;;;;;;;8.50;5.07;;;;;;;;;;10329156;28;20406;-59
2023/09/30 19:59:18;;;;;;;9.25;4.72;;;;;;;;;;10328714;28;20173;-59
2023/09/30 20:04:19;;;;;;;9.82;5.38;;;;;;;;;;10329504;28;20073;-59
2023/09/30 20:09:25;;;;;;;11.82;5.10;;;;;;;;;;10328542;28;20023;-58
2023/09/30 20:14:26;;;;;;;13.82;5.72;;;;;;;;;;10328600;28;20137;-57
2023/09/30 20:19:27;;;;;;;9.98;6.18;;;;;;;;;;10329129;28;20033;-57
2023/09/30 20:24:27;;;;;;;10.20;5.63;;;;;;;;;;10328628;28;20037;-60
2023/09/30 20:29:28;;;;;;;11.30;5.55;;;;;;;;;;10327527;28;20018;-58
2023/09/30 20:34:29;;;;;;;10.48;6.18;;;;;;;;;;10328136;28;20038;-58
2023/09/30 20:39:29;;;;;;;16.10;5.75;;;;;;;;;;10328246;28;20030;-59
2023/09/30 20:44:30;;;;;;;13.63;6.32;;;;;;;;;;10327680;28;20030;-57
2023/09/30 20:49:31;;;;;;;9.55;5.75;;;;;;;;;;10327399;28;20026;-61
2023/09/30 20:54:33;;;;;;;14.70;6.07;;;;;;;;;;10327208;28;20466;-58
2023/09/30 20:59:35;;;;;;;9.55;5.75;;;;;;;;;;10326509;28;20066;-59
2023/09/30 21:04:37;;;;;;;13.20;5.88;;;;;;;;;;10327426;28;20118;-60
2023/09/30 21:09:37;;;;;;;11.43;5.85;;;;;;;;;;10326051;28;20402;-58
2023/09/30 21:14:38;;;;;;;9.05;5.97;;;;;;;;;;10326538;28;20185;-57
2023/09/30 21:19:39;;;;;;;10.73;6.78;;;;;;;;;;10326539;28;20030;-58
2023/09/30 21:24:40;;;;;;;15.90;6.75;;;;;;;;;;10325941;28;20041;-57
2023/09/30 21:29:40;;;;;;;11.70;6.00;;;;;;;;;;10326500;28;20256;-51
2023/09/30 21:34:41;;;;;;;10.90;6.13;;;;;;;;;;10326278;28;20034;-51
2023/09/30 21:39:42;;;;;;;14.77;6.32;;;;;;;;;;10325482;28;20070;-52
2023/09/30 21:44:42;;;;;;;8.98;5.35;;;;;;;;;;10325203;28;20026;-55
2023/09/30 21:49:45;;;;;;;11.63;6.90;;;;;;;;;;10326396;28;20026;-56
2023/09/30 21:54:45;;;;;;;13.60;6.45;;;;;;;;;;10326400;28;20030;-55
2023/09/30 21:59:47;;;;;;;10.93;6.28;;;;;;;;;;10325420;28;20031;-55
2023/09/30 22:04:48;;;;;;;12.15;6.00;;;;;;;;;;10326251;28;20030;-55
2023/09/30 22:09:48;;;;;;;11.68;6.32;;;;;;;;;;10326135;28;20029;-54
2023/09/30 22:14:50;;;;;;;12.18;6.65;;;;;;;;;;10333591;28;20054;-57
2023/09/30 22:19:52;;;;;;;18.95;7.28;;;;;;;;;;10333557;28;20042;-56
2023/09/30 22:24:54;;;;;;;11.10;6.90;;;;;;;;;;10333666;28;20034;-56
2023/09/30 22:29:54;;;;;;;14.30;7.25;;;;;;;;;;10332924;28;20034;-56
2023/09/30 22:34:55;;;;;;;15.60;7.30;;;;;;;;;;10333331;28;20030;-57
2023/09/30 22:39:56;;;;;;;17.60;7.63;;;;;;;;;;10333346;28;20022;-59
2023/09/30 22:44:56;;;;;;;8.43;6.50;;;;;;;;;;10332236;28;20261;-56
2023/09/30 22:49:57;;;;;;;11.98;7.95;;;;;;;;;;10332210;28;20041;-56
2023/09/30 22:54:57;;;;;;;11.18;7.22;;;;;;;;;;10332061;28;20147;-58
2023/09/30 23:00:02;;;;;;;8.48;7.13;;;;;;;;;;10331922;28;20037;-56
2023/09/30 23:05:03;;;;;;;15.82;7.68;;;;;;;;;;10331608;28;20031;-58
2023/09/30 23:10:04;;;;;;;9.48;6.78;;;;;;;;;;10331777;28;20397;-55
2023/09/30 23:15:17;;;;;;;11.98;8.25;;;;;;;;;;10331337;28;20037;-56
2023/09/30 23:20:21;;;;;;;10.50;7.78;;;;;;;;;;10331639;28;20038;-51
2023/09/30 23:25:26;;;;;;;12.13;8.10;;;;;;;;;;10329890;28;20030;-56
2023/09/30 23:30:28;;;;;;;11.07;7.90;;;;;;;;;;10330946;28;20022;-56
2023/09/30 23:35:30;;;;;;;11.63;7.47;;;;;;;;;;10330778;28;20027;-58
2023/09/30 23:40:32;;;;;;;11.50;7.22;;;;;;;;;;10329819;28;20105;-58
2023/09/30 23:45:36;;;;;;;11.55;7.88;;;;;;;;;;10329694;28;20039;-59
2023/09/30 23:50:37;;;;;;;11.30;7.55;;;;;;;;;;10329818;28;20490;-57
2023/09/30 23:55:38;;;;;;;10.70;7.20;;;;;;;;;;10329872;28;20034;-57
